Time;durP1;ratioP1;P1;durP2;ratioP2;P2;SDS_P1;SDS_P2;PMS_P1;PMS_P2;Temp;Humidity;BMP_temperature;BMP_pressure;BME280_temperature;BME280_humidity;BME280_pressure;Samples;Min_cycle;Max_cycle;Signal;HPM_P1;HPM_P2
2021/12/10 00:02:23;;;;;;;71.60;27.90;;;;;;;-1.20;96.65;98135.45;104211;1314;23092;-26
2021/12/10 00:04:48;;;;;;;92.40;34.10;;;;;;;-1.20;96.90;98126.61;103998;1313;22491;-30
2021/12/10 00:07:18;;;;;;;81.00;30.60;;;;;;;-1.16;96.83;98125.21;104152;1315;22584;-30
2021/12/10 00:09:47;;;;;;;95.00;31.00;;;;;;;-1.20;96.26;98126.10;104126;1314;24274;-26
2021/12/10 00:12:16;;;;;;;75.70;29.90;;;;;;;-1.26;96.20;98140.61;104067;1313;24252;-26
2021/12/10 00:14:42;;;;;;;74.70;28.90;;;;;;;-1.28;96.15;98151.70;104301;1315;25282;-26
2021/12/10 00:17:09;;;;;;;141.90;39.60;;;;;;;-1.33;96.23;98155.30;104219;1311;24248;-26
2021/12/10 00:19:42;;;;;;;128.80;37.20;;;;;;;-1.33;96.38;98142.73;104263;1315;24276;-30
2021/12/10 00:22:12;;;;;;;88.50;28.10;;;;;;;-1.31;96.49;98136.73;104383;1315;22506;-30
2021/12/10 00:24:39;;;;;;;100.10;32.20;;;;;;;-1.31;96.36;98144.30;104090;1315;23859;-30
2021/12/10 00:27:08;;;;;;;153.90;47.20;;;;;;;-1.31;96.34;98139.04;104004;1308;24361;-26
2021/12/10 00:29:36;;;;;;;139.20;43.00;;;;;;;-1.29;96.36;98133.52;104344;1314;22466;-25
2021/12/10 00:32:08;;;;;;;151.20;44.60;;;;;;;-1.33;96.19;98131.77;104209;1314;24189;-26
2021/12/10 00:34:39;;;;;;;95.30;30.70;;;;;;;-1.33;96.27;98123.89;103931;1316;22522;-30
2021/12/10 00:37:09;;;;;;;116.80;36.90;;;;;;;-1.31;96.41;98121.09;104059;1314;22709;-30
2021/12/10 00:39:38;;;;;;;129.90;38.50;;;;;;;-1.32;96.16;98121.21;104222;1314;23282;-26
2021/12/10 00:42:06;;;;;;;123.90;39.30;;;;;;;-1.34;96.39;98131.70;104404;1315;22708;-30
2021/12/10 00:44:33;;;;;;;102.70;35.30;;;;;;;-1.33;96.41;98132.23;104216;1316;24156;-26
2021/12/10 00:47:00;;;;;;;79.10;27.90;;;;;;;-1.36;95.90;98137.61;103909;1315;23024;-30
2021/12/10 00:49:26;;;;;;;76.70;27.40;;;;;;;-1.42;95.98;98144.77;104368;1315;24187;-26
2021/12/10 00:51:51;;;;;;;98.80;31.40;;;;;;;-1.47;96.02;98146.36;104228;1314;24232;-30
2021/12/10 00:54:17;;;;;;;112.00;33.50;;;;;;;-1.52;95.83;98141.05;104367;1316;24185;-26
2021/12/10 00:56:44;;;;;;;73.90;25.80;;;;;;;-1.56;95.68;98138.84;104014;1308;22453;-30
2021/12/10 00:59:10;;;;;;;98.10;32.50;;;;;;;-1.56;96.23;98129.66;104256;1315;23763;-26
2021/12/10 01:01:37;;;;;;;100.30;28.00;;;;;;;-1.53;96.64;98111.61;104164;1314;24097;-26
2021/12/10 01:04:08;;;;;;;71.30;27.70;;;;;;;-1.50;96.46;98115.20;104001;1314;22577;-30
2021/12/10 01:06:34;;;;;;;70.50;26.20;;;;;;;-1.49;96.59;98119.71;104000;1305;22465;-30
2021/12/10 01:09:04;;;;;;;83.80;29.90;;;;;;;-1.46;96.66;98112.58;104062;1314;24159;-30
2021/12/10 01:11:35;;;;;;;74.60;29.20;;;;;;;-1.44;96.41;98106.41;103958;1315;24124;-30
2021/12/10 01:14:14;;;;;;;72.80;29.20;;;;;;;-1.46;96.41;98104.44;104192;1314;24148;-29
2021/12/10 01:24:31;;;;;;;56.60;22.00;;;;;;;-1.39;96.81;98096.73;104149;1316;22454;-30
2021/12/10 01:27:01;;;;;;;74.60;26.60;;;;;;;-1.33;96.78;98091.63;103978;1315;24258;-30
2021/12/10 01:29:33;;;;;;;69.60;26.40;;;;;;;-1.29;96.91;98094.23;104120;1316;22475;-30
2021/12/10 01:32:00;;;;;;;70.30;26.40;;;;;;;-1.24;96.82;98092.06;104309;1316;22451;-26
2021/12/10 01:34:26;;;;;;;62.20;19.30;;;;;;;-1.20;97.04;98087.67;104111;1314;22439;-30
2021/12/10 01:36:52;;;;;;;63.80;23.80;;;;;;;-1.15;96.99;98082.77;104127;1308;22582;-26
2021/12/10 01:39:22;;;;;;;64.10;24.90;;;;;;;-1.12;97.12;98079.80;104172;1315;22528;-26
2021/12/10 01:41:55;;;;;;;66.80;25.80;;;;;;;-1.10;96.98;98075.05;104077;1317;24163;-26
2021/12/10 01:44:28;;;;;;;61.50;24.80;;;;;;;-1.08;96.86;98068.30;104205;1316;24278;-26
2021/12/10 01:46:57;;;;;;;70.90;27.30;;;;;;;-1.04;96.80;98060.75;104225;1307;24130;-26
2021/12/10 01:49:23;;;;;;;56.70;23.30;;;;;;;-1.03;96.80;98054.30;104069;1315;24083;-30
2021/12/10 01:51:49;;;;;;;60.10;26.70;;;;;;;-1.06;96.35;98044.39;104149;1314;23897;-28
2021/12/10 01:54:21;;;;;;;62.00;24.80;;;;;;;-1.04;96.62;98038.18;104220;1313;22663;-30
2021/12/10 01:56:48;;;;;;;67.00;25.90;;;;;;;-1.03;96.59;98041.11;104159;1314;24300;-30
2021/12/10 01:59:16;;;;;;;51.60;22.40;;;;;;;-1.08;96.26;98041.35;104166;1314;22704;-26
2021/12/10 02:01:47;;;;;;;63.70;25.20;;;;;;;-1.14;95.90;98042.61;104142;1314;22731;-30
2021/12/10 02:04:15;;;;;;;70.80;25.20;;;;;;;-1.17;95.91;98039.06;104172;1311;24144;-26
2021/12/10 02:06:41;;;;;;;77.00;25.10;;;;;;;-1.21;96.17;98028.41;104193;1312;22483;-26
2021/12/10 02:09:07;;;;;;;52.00;21.40;;;;;;;-1.20;96.29;98026.90;104130;1314;22939;-31
2021/12/10 02:11:33;;;;;;;59.90;20.80;;;;;;;-1.20;96.09;98037.04;104291;1315;24219;-30
2021/12/10 02:13:59;;;;;;;57.50;21.80;;;;;;;-1.24;96.04;98044.70;103992;1313;24162;-30
2021/12/10 02:16:25;;;;;;;78.80;25.80;;;;;;;-1.30;95.79;98050.74;104052;1314;24085;-26
2021/12/10 02:18:50;;;;;;;82.60;30.20;;;;;;;-1.34;95.83;98054.63;104111;1314;22708;-30
2021/12/10 02:21:19;;;;;;;71.10;27.70;;;;;;;-1.39;95.71;98050.77;104041;1313;22460;-30
2021/12/10 02:23:51;;;;;;;94.60;29.40;;;;;;;-1.44;95.64;98040.04;104094;1314;22468;-26
2021/12/10 02:26:17;;;;;;;91.00;31.00;;;;;;;-1.49;95.58;98032.80;104065;1315;23910;-26
2021/12/10 02:28:43;;;;;;;119.20;41.10;;;;;;;-1.50;95.79;98031.84;104213;1305;24144;-26
2021/12/10 02:31:09;;;;;;;93.70;33.90;;;;;;;-1.50;96.02;98034.60;104098;1305;24103;-26
2021/12/10 02:33:35;;;;;;;104.20;32.60;;;;;;;-1.48;96.11;98037.98;104057;1314;22543;-26
2021/12/10 02:36:02;;;;;;;55.10;22.90;;;;;;;-1.49;96.16;98046.09;104253;1308;25468;-30
2021/12/10 02:38:28;;;;;;;71.70;24.30;;;;;;;-1.47;96.34;98049.47;104190;1314;24252;-25
2021/12/10 02:40:54;;;;;;;68.40;24.60;;;;;;;-1.42;96.79;98046.48;104275;1313;24265;-30
2021/12/10 02:43:21;;;;;;;61.00;24.20;;;;;;;-1.36;97.02;98043.65;104068;1314;24233;-30
2021/12/10 02:45:49;;;;;;;49.80;19.80;;;;;;;-1.33;96.62;98041.40;104120;1305;24314;-26
2021/12/10 02:48:17;;;;;;;60.40;22.80;;;;;;;-1.34;96.42;98041.11;104247;1314;22463;-26
2021/12/10 02:50:44;;;;;;;45.50;18.50;;;;;;;-1.32;96.51;98040.75;104146;1314;24145;-25
2021/12/10 02:53:10;;;;;;;67.10;24.10;;;;;;;-1.29;96.50;98037.98;104085;1314;25946;-26
2021/12/10 02:55:37;;;;;;;51.10;20.70;;;;;;;-1.28;96.39;98044.77;103775;1313;24144;-30
2021/12/10 02:58:07;;;;;;;53.40;22.60;;;;;;;-1.29;96.54;98051.13;103917;1314;24177;-30
2021/12/10 03:00:38;;;;;;;49.80;20.20;;;;;;;-1.30;96.36;98048.10;104195;1314;22558;-26
2021/12/10 03:03:04;;;;;;;58.60;24.00;;;;;;;-1.30;96.53;98040.39;103884;1314;22449;-26
2021/12/10 03:05:30;;;;;;;60.90;23.20;;;;;;;-1.29;96.60;98042.96;104195;1314;24169;-26
2021/12/10 03:07:56;;;;;;;72.00;24.40;;;;;;;-1.27;96.60;98040.41;104168;1312;24147;-30
2021/12/10 03:10:25;;;;;;;52.80;19.90;;;;;;;-1.27;96.68;98039.59;103893;1311;22865;-30
2021/12/10 03:12:51;;;;;;;59.00;19.40;;;;;;;-1.26;96.52;98038.21;104394;1313;24391;-26
2021/12/10 03:15:17;;;;;;;74.20;24.80;;;;;;;-1.26;96.46;98042.60;104238;1313;24144;-26
2021/12/10 03:17:43;;;;;;;47.00;21.20;;;;;;;-1.27;96.28;98047.59;104241;1314;22464;-27
2021/12/10 03:20:10;;;;;;;75.40;29.80;;;;;;;-1.29;96.17;98051.86;104161;1307;24270;-26
2021/12/10 03:22:37;;;;;;;67.90;25.80;;;;;;;-1.32;96.12;98044.44;104075;1314;24124;-25
2021/12/10 03:25:05;;;;;;;67.90;24.10;;;;;;;-1.33;96.22;98027.36;103972;1311;23783;-25
2021/12/10 03:27:31;;;;;;;57.30;25.90;;;;;;;-1.31;96.33;98024.82;103980;1308;22586;-26
2021/12/10 03:29:57;;;;;;;72.80;26.00;;;;;;;-1.33;96.06;98031.23;104029;1307;22465;-30
2021/12/10 03:32:25;;;;;;;69.30;27.00;;;;;;;-1.41;95.87;98020.23;104257;1314;22453;-30
2021/12/10 03:34:51;;;;;;;65.10;25.90;;;;;;;-1.44;96.18;98019.70;104260;1315;24144;-25
2021/12/10 03:37:19;;;;;;;68.90;25.90;;;;;;;-1.46;96.11;98023.88;104304;1313;24325;-27
2021/12/10 03:39:46;;;;;;;64.20;24.70;;;;;;;-1.48;96.24;98017.27;104287;1314;24136;-30
2021/12/10 03:42:12;;;;;;;82.70;28.70;;;;;;;-1.50;96.48;98003.20;104184;1314;24246;-30
2021/12/10 03:44:38;;;;;;;83.70;28.60;;;;;;;-1.50;96.46;97984.77;104243;1314;22482;-26
2021/12/10 03:47:05;;;;;;;68.90;24.10;;;;;;;-1.49;96.48;97984.19;104361;1314;24138;-26
2021/12/10 03:49:32;;;;;;;76.40;27.90;;;;;;;-1.48;96.48;97987.98;104035;1313;22447;-30
2021/12/10 03:51:58;;;;;;;71.00;26.00;;;;;;;-1.47;96.63;97986.99;104043;1305;22785;-26
2021/12/10 03:54:26;;;;;;;69.80;27.90;;;;;;;-1.42;96.89;97984.13;103964;1304;22836;-30
2021/12/10 03:56:52;;;;;;;59.30;25.00;;;;;;;-1.39;96.68;97979.31;104130;1304;22650;-30
2021/12/10 03:59:19;;;;;;;76.10;25.40;;;;;;;-1.38;96.80;97975.03;103830;1315;689296;-26
2021/12/10 04:01:52;;;;;;;56.20;21.30;;;;;;;-1.37;96.56;97976.45;103912;1314;23944;-26
2021/12/10 04:04:24;;;;;;;78.80;27.40;;;;;;;-1.35;97.11;97977.13;104171;1315;22507;-26
2021/12/10 04:06:51;;;;;;;69.30;25.20;;;;;;;-1.28;97.35;97967.52;104222;1316;22450;-26
2021/12/10 04:09:17;;;;;;;71.30;24.50;;;;;;;-1.26;96.91;97965.66;104203;1314;23247;-30
2021/12/10 04:11:43;;;;;;;77.00;28.60;;;;;;;-1.26;96.60;97970.26;104139;1313;24121;-30
2021/12/10 04:14:09;;;;;;;71.20;26.10;;;;;;;-1.27;96.68;97970.55;103936;1314;22449;-30
2021/12/10 04:16:35;;;;;;;67.20;23.60;;;;;;;-1.28;96.61;97974.50;104068;1313;22462;-30
2021/12/10 04:19:03;;;;;;;60.80;26.10;;;;;;;-1.25;96.76;97975.57;104134;1315;24132;-26
2021/12/10 04:21:29;;;;;;;62.30;25.30;;;;;;;-1.23;96.56;97972.60;104070;1313;24165;-26
2021/12/10 04:23:55;;;;;;;48.70;20.00;;;;;;;-1.24;96.49;97975.18;104175;1305;22777;-26
2021/12/10 04:26:23;;;;;;;66.30;24.00;;;;;;;-1.25;96.41;97974.58;104083;1314;24802;-25
2021/12/10 04:28:49;;;;;;;79.40;28.50;;;;;;;-1.22;96.50;97974.77;104286;1316;22580;-30
2021/12/10 04:31:15;;;;;;;74.70;25.10;;;;;;;-1.18;96.61;97974.48;104184;1314;22797;-30
2021/12/10 04:33:41;;;;;;;63.90;27.00;;;;;;;-1.15;96.65;97976.67;104148;1314;24195;-30
2021/12/10 04:36:10;;;;;;;67.80;28.20;;;;;;;-1.12;96.58;97983.65;104078;1307;22681;-31
2021/12/10 04:38:36;;;;;;;67.80;21.50;;;;;;;-1.14;96.61;97989.39;104081;1316;24025;-26
2021/12/10 04:41:05;;;;;;;73.20;28.40;;;;;;;-1.19;96.25;97985.45;103943;1310;22587;-26
2021/12/10 04:43:32;;;;;;;71.30;28.20;;;;;;;-1.20;96.62;97991.16;104093;1314;22563;-26
2021/12/10 04:45:58;;;;;;;72.10;24.80;;;;;;;-1.19;96.54;97989.57;104169;1314;24255;-30
2021/12/10 04:48:26;;;;;;;67.20;27.10;;;;;;;-1.20;96.31;98000.55;104186;1314;24156;-30
2021/12/10 04:50:53;;;;;;;59.80;22.30;;;;;;;-1.23;96.29;98001.39;104156;1316;22634;-26
2021/12/10 04:53:19;;;;;;;72.80;28.80;;;;;;;-1.27;96.42;98004.98;104270;1310;22450;-30
2021/12/10 04:55:45;;;;;;;74.80;27.70;;;;;;;-1.25;96.46;98004.08;104261;1308;22718;-30
2021/12/10 04:58:12;;;;;;;66.00;21.90;;;;;;;-1.26;96.54;98002.01;104165;1315;22523;-27
2021/12/10 05:00:43;;;;;;;82.40;30.50;;;;;;;-1.27;96.73;97989.31;104273;1311;22570;-26
2021/12/10 05:03:09;;;;;;;75.40;25.90;;;;;;;-1.28;96.70;97980.10;104160;1314;23778;-26
2021/12/10 05:05:35;;;;;;;96.70;29.90;;;;;;;-1.29;96.92;97979.54;103943;1314;24163;-26
2021/12/10 05:08:02;;;;;;;79.70;30.10;;;;;;;-1.25;97.03;97978.96;104127;1307;24258;-26
2021/12/10 05:10:28;;;;;;;77.90;28.70;;;;;;;-1.24;96.85;97974.29;104139;1314;22663;-30
2021/12/10 05:12:54;;;;;;;87.90;32.10;;;;;;;-1.23;96.98;97971.47;103963;1307;24212;-30
2021/12/10 05:15:22;;;;;;;86.10;29.60;;;;;;;-1.20;97.27;97973.28;104153;1313;22464;-26
2021/12/10 05:17:49;;;;;;;79.60;26.70;;;;;;;-1.17;97.22;97977.03;104197;1316;22898;-26
2021/12/10 05:20:17;;;;;;;102.30;32.60;;;;;;;-1.15;96.93;97978.09;104070;1308;23872;-30
2021/12/10 05:22:45;;;;;;;95.10;33.20;;;;;;;-1.17;96.60;97981.60;104107;1314;22504;-26
2021/12/10 05:25:10;;;;;;;99.80;30.10;;;;;;;-1.22;96.66;97981.09;104178;1307;24097;-30
2021/12/10 05:27:37;;;;;;;93.70;30.30;;;;;;;-1.22;96.82;97974.58;104236;1307;24262;-29
2021/12/10 05:30:04;;;;;;;90.60;31.00;;;;;;;-1.20;96.74;97977.05;104061;1313;22733;-27
2021/12/10 05:32:30;;;;;;;91.70;31.00;;;;;;;-1.22;96.48;97969.99;104145;1304;22461;-30
2021/12/10 05:34:55;;;;;;;79.50;28.90;;;;;;;-1.22;96.73;97971.90;104126;1314;24176;-26
2021/12/10 05:37:22;;;;;;;82.20;30.80;;;;;;;-1.25;96.56;97972.05;104094;1314;22463;-26
2021/12/10 05:39:48;;;;;;;84.90;30.10;;;;;;;-1.23;96.66;97975.38;104136;1314;24135;-27
2021/12/10 05:42:15;;;;;;;84.10;30.30;;;;;;;-1.24;96.73;97978.80;104144;1314;24125;-26
2021/12/10 05:44:41;;;;;;;93.40;29.00;;;;;;;-1.28;96.78;97970.81;104011;1314;24168;-26
2021/12/10 05:47:07;;;;;;;85.60;31.00;;;;;;;-1.27;96.99;97973.67;104311;1305;22719;-30
2021/12/10 05:49:33;;;;;;;95.70;28.80;;;;;;;-1.24;96.79;97971.76;104150;1310;22490;-26
2021/12/10 05:51:59;;;;;;;71.70;27.00;;;;;;;-1.24;97.06;97976.69;104088;1315;24174;-26
2021/12/10 05:54:25;;;;;;;97.60;35.00;;;;;;;-1.25;96.91;97972.80;104044;1313;24172;-26
2021/12/10 05:56:51;;;;;;;103.80;32.70;;;;;;;-1.22;97.49;97967.89;104009;1314;24276;-27
2021/12/10 05:59:17;;;;;;;81.20;28.60;;;;;;;-1.22;96.99;97973.31;104019;1310;24159;-30
2021/12/10 06:01:44;;;;;;;72.60;28.40;;;;;;;-1.20;96.91;97971.08;103981;1314;22437;-29
2021/12/10 06:04:10;;;;;;;94.50;32.00;;;;;;;-1.21;96.81;97972.96;104323;1314;22461;-30
2021/12/10 06:06:36;;;;;;;81.10;26.50;;;;;;;-1.23;96.91;97973.97;104093;1313;22767;-30
2021/12/10 06:09:04;;;;;;;86.90;27.40;;;;;;;-1.21;96.88;97977.43;103945;1311;22461;-26
2021/12/10 06:11:30;;;;;;;80.40;28.60;;;;;;;-1.25;96.59;97977.55;104308;1304;22441;-30
2021/12/10 06:13:56;;;;;;;53.90;22.10;;;;;;;-1.23;96.79;97975.35;104154;1313;22484;-26
2021/12/10 06:16:22;;;;;;;83.30;29.90;;;;;;;-1.20;96.97;97972.83;104011;1304;22473;-30
2021/12/10 06:18:48;;;;;;;102.30;35.50;;;;;;;-1.17;97.01;97965.06;104231;1313;22594;-26
2021/12/10 06:21:14;;;;;;;77.60;29.40;;;;;;;-1.15;97.01;97966.50;104318;1304;24136;-30
2021/12/10 06:23:40;;;;;;;74.20;29.60;;;;;;;-1.15;96.90;97964.38;103986;1315;22833;-28
2021/12/10 06:26:05;;;;;;;84.50;29.70;;;;;;;-1.14;96.93;97966.77;104140;1314;24195;-26
2021/12/10 06:28:32;;;;;;;87.60;28.30;;;;;;;-1.17;96.81;97964.55;104287;1314;23872;-27
2021/12/10 06:30:58;;;;;;;86.10;31.30;;;;;;;-1.21;96.74;97963.23;104051;1313;24250;-27
2021/12/10 06:33:27;;;;;;;70.50;23.80;;;;;;;-1.21;96.88;97964.69;104338;1307;22461;-30
2021/12/10 06:35:54;;;;;;;103.00;29.70;;;;;;;-1.24;97.13;97965.49;104056;1314;22477;-30
2021/12/10 06:38:21;;;;;;;82.80;28.80;;;;;;;-1.20;97.06;97967.83;104159;1314;24251;-26
2021/12/10 06:40:48;;;;;;;89.70;31.20;;;;;;;-1.17;96.78;97973.90;104193;1305;22687;-30
2021/12/10 06:43:14;;;;;;;67.90;24.00;;;;;;;-1.21;96.53;97973.05;104038;1314;24251;-26
2021/12/10 06:45:40;;;;;;;95.50;34.40;;;;;;;-1.18;96.93;97975.38;104191;1313;24149;-26
2021/12/10 06:48:06;;;;;;;98.20;30.10;;;;;;;-1.16;96.83;97975.88;104293;1313;24133;-26
2021/12/10 06:50:35;;;;;;;86.70;32.50;;;;;;;-1.15;96.90;97980.43;104101;1307;22449;-30
2021/12/10 06:53:01;;;;;;;93.90;32.50;;;;;;;-1.17;96.81;97984.07;104182;1310;22657;-26
2021/12/10 06:55:27;;;;;;;93.20;32.20;;;;;;;-1.18;96.79;97979.98;103737;1308;22568;-26
2021/12/10 06:57:53;;;;;;;106.20;36.20;;;;;;;-1.18;97.12;97975.77;104108;1311;22718;-26
2021/12/10 07:00:23;;;;;;;114.20;32.00;;;;;;;-1.14;97.21;97973.79;103872;1314;24291;-26
2021/12/10 07:02:49;;;;;;;93.50;29.20;;;;;;;-1.12;97.16;97971.27;103948;1307;23789;-30
2021/12/10 07:05:15;;;;;;;107.60;31.60;;;;;;;-1.08;97.06;97970.02;104061;1307;24168;-30
2021/12/10 07:07:41;;;;;;;105.30;34.60;;;;;;;-1.08;96.91;97972.22;104057;1307;24286;-26
2021/12/10 07:10:08;;;;;;;102.70;33.10;;;;;;;-1.07;96.77;97972.13;103905;1311;22441;-26
2021/12/10 07:12:35;;;;;;;110.40;34.00;;;;;;;-1.06;96.96;97973.45;104112;1314;22598;-26
2021/12/10 07:15:02;;;;;;;100.00;34.90;;;;;;;-1.07;96.70;97973.55;103846;1310;22578;-26
2021/12/10 07:17:28;;;;;;;124.70;38.00;;;;;;;-1.08;97.00;97973.52;104294;1313;22606;-26
2021/12/10 07:19:55;;;;;;;107.10;33.80;;;;;;;-1.05;97.23;97972.11;104195;1314;24250;-26
2021/12/10 07:22:21;;;;;;;92.40;28.30;;;;;;;-0.99;97.19;97971.17;103847;1316;22446;-30
2021/12/10 07:24:47;;;;;;;88.50;30.10;;;;;;;-0.95;97.24;97969.52;103843;1311;23778;-27
2021/12/10 07:27:12;;;;;;;124.10;33.80;;;;;;;-0.89;97.28;97970.32;104207;1313;24173;-30
2021/12/10 07:29:39;;;;;;;133.00;35.30;;;;;;;-0.86;97.00;97970.92;104178;1311;25905;-26
2021/12/10 07:32:06;;;;;;;92.10;33.00;;;;;;;-0.81;96.69;97969.13;104163;1314;24265;-26
2021/12/10 07:34:32;;;;;;;107.30;33.50;;;;;;;-0.85;96.67;97977.82;104123;1313;24171;-30
2021/12/10 07:36:59;;;;;;;94.50;27.90;;;;;;;-0.79;96.82;97977.71;104085;1314;24252;-30
2021/12/10 07:39:24;;;;;;;92.30;30.80;;;;;;;-0.78;96.57;97983.35;104071;1314;22826;-30
2021/12/10 07:41:50;;;;;;;122.90;34.30;;;;;;;-0.84;96.43;97975.92;104028;1310;24110;-25
2021/12/10 07:44:16;;;;;;;112.50;33.40;;;;;;;-0.86;96.74;97982.13;103988;1307;24271;-30
2021/12/10 07:46:42;;;;;;;101.30;27.20;;;;;;;-0.82;96.61;97981.19;104092;1314;24274;-26
2021/12/10 07:49:14;;;;;;;116.80;33.80;;;;;;;-0.72;97.08;97985.88;104111;1314;24327;-26
2021/12/10 07:51:41;;;;;;;121.50;35.90;;;;;;;-0.59;96.59;97983.90;104214;1307;25944;-26
2021/12/10 07:54:11;;;;;;;111.70;34.50;;;;;;;-0.57;96.44;97990.70;104152;1313;22531;-31
2021/12/10 07:56:40;;;;;;;116.20;32.20;;;;;;;-0.53;96.66;97994.67;104162;1311;22774;-26
2021/12/10 07:59:09;;;;;;;103.00;30.80;;;;;;;-0.47;96.73;97999.30;104165;1313;22738;-26
2021/12/10 08:01:38;;;;;;;127.10;37.00;;;;;;;-0.37;96.54;98002.61;104116;1314;24253;-31
2021/12/10 08:04:06;;;;;;;116.40;38.40;;;;;;;-0.36;95.89;97996.45;104141;1314;24162;-26
2021/12/10 08:06:32;;;;;;;109.30;29.00;;;;;;;-0.48;95.57;97997.61;103948;1304;24159;-26
2021/12/10 08:08:58;;;;;;;101.60;29.50;;;;;;;-0.48;95.75;97997.80;103939;1314;22592;-30
2021/12/10 08:11:24;;;;;;;111.70;31.90;;;;;;;-0.42;95.92;97995.98;104123;1313;22719;-26
2021/12/10 08:13:51;;;;;;;98.00;30.40;;;;;;;-0.32;95.97;97996.73;104167;1314;24156;-26
2021/12/10 08:16:17;;;;;;;104.60;29.40;;;;;;;-0.28;95.84;97994.33;103944;1314;23906;-30
2021/12/10 08:18:43;;;;;;;105.40;30.10;;;;;;;-0.29;95.58;97999.94;104093;1314;24240;-25
2021/12/10 08:21:09;;;;;;;102.10;30.60;;;;;;;-0.20;95.60;97995.83;104358;1314;24258;-31
2021/12/10 08:23:36;;;;;;;89.60;26.60;;;;;;;-0.20;95.31;97985.77;103799;1311;24145;-31
2021/12/10 08:26:02;;;;;;;110.30;34.80;;;;;;;-0.17;95.17;97982.04;104220;1307;26038;-26
2021/12/10 08:28:28;;;;;;;120.00;33.20;;;;;;;-0.10;95.19;97983.77;103936;1310;24280;-30
2021/12/10 08:30:55;;;;;;;109.00;29.20;;;;;;;-0.05;94.38;97979.06;103964;1310;24142;-30
2021/12/10 08:33:21;;;;;;;104.80;31.30;;;;;;;-0.02;94.35;97986.28;104068;1314;24254;-26
2021/12/10 08:35:49;;;;;;;93.00;29.70;;;;;;;-0.00;93.87;97985.22;104221;1305;22466;-26
2021/12/10 08:38:15;;;;;;;99.40;29.50;;;;;;;0.01;93.98;97985.49;104354;1314;24261;-26
2021/12/10 08:40:44;;;;;;;100.30;34.50;;;;;;;0.04;94.04;97985.68;104027;1313;22440;-26
2021/12/10 08:43:10;;;;;;;110.60;34.20;;;;;;;0.01;93.56;97990.40;103922;1314;24133;-26
2021/12/10 08:45:36;;;;;;;115.60;34.20;;;;;;;0.05;93.77;97993.30;104006;1310;22566;-31
2021/12/10 08:48:06;;;;;;;88.90;30.00;;;;;;;0.12;93.89;97994.50;103932;1310;22493;-30
2021/12/10 08:50:32;;;;;;;99.80;32.40;;;;;;;0.22;93.63;97995.36;104083;1308;24308;-29
2021/12/10 08:53:01;;;;;;;106.80;31.00;;;;;;;0.31;93.78;98002.85;104104;1305;22464;-26
2021/12/10 08:55:27;;;;;;;106.30;31.70;;;;;;;0.28;92.57;97998.07;104265;1314;22511;-31
2021/12/10 08:57:53;;;;;;;98.80;33.20;;;;;;;0.34;93.02;98001.59;104212;1314;24302;-27
2021/12/10 09:00:20;;;;;;;93.30;30.80;;;;;;;0.35;92.70;97994.98;104160;1314;22537;-31
2021/12/10 09:02:48;;;;;;;89.10;30.00;;;;;;;0.41;92.37;97997.12;103976;1314;22468;-26
2021/12/10 09:05:14;;;;;;;83.80;30.00;;;;;;;0.37;92.31;97996.90;104281;1314;24259;-30
2021/12/10 09:07:43;;;;;;;75.70;28.60;;;;;;;0.38;92.14;97997.63;103953;1314;23916;-27
2021/12/10 09:10:10;;;;;;;73.00;25.10;;;;;;;0.30;91.51;97998.33;104044;1313;24272;-30
2021/12/10 09:12:36;;;;;;;74.90;25.70;;;;;;;0.35;91.82;97994.40;103700;1310;22464;-30
2021/12/10 09:15:05;;;;;;;56.80;21.10;;;;;;;0.42;92.28;97988.58;103976;1314;24272;-31
2021/12/10 09:17:38;;;;;;;70.40;25.70;;;;;;;0.45;91.66;97990.56;103997;1314;22826;-26
2021/12/10 09:20:08;;;;;;;74.50;23.60;;;;;;;0.50;92.07;97989.87;104119;1310;22437;-27
2021/12/10 09:22:34;;;;;;;69.30;23.90;;;;;;;0.52;91.54;97984.54;103972;1314;22453;-31
2021/12/10 09:24:59;;;;;;;62.40;21.30;;;;;;;0.62;91.55;97985.52;104186;1314;22730;-30
2021/12/10 09:27:25;;;;;;;68.40;22.40;;;;;;;0.66;91.00;97987.55;104329;1316;22615;-27
2021/12/10 09:29:52;;;;;;;57.00;19.40;;;;;;;0.72;91.00;97983.54;104055;1314;24272;-30
2021/12/10 09:32:20;;;;;;;59.20;22.20;;;;;;;0.70;90.77;97985.13;103897;1316;22466;-31
2021/12/10 09:34:47;;;;;;;57.60;20.50;;;;;;;0.72;90.46;97982.52;104219;1314;22930;-26
2021/12/10 09:37:13;;;;;;;49.30;20.70;;;;;;;0.81;90.61;97982.20;104132;1314;22562;-26
2021/12/10 09:39:38;;;;;;;55.10;22.10;;;;;;;0.87;90.48;97980.30;104116;1314;22989;-26
2021/12/10 09:42:05;;;;;;;49.10;20.40;;;;;;;0.98;90.26;97980.01;104173;1307;22580;-26
2021/12/10 09:44:30;;;;;;;64.00;22.30;;;;;;;1.05;89.05;97976.67;103880;1314;24158;-30
2021/12/10 09:46:57;;;;;;;67.00;22.60;;;;;;;0.84;88.66;97984.73;104197;1313;24145;-30
2021/12/10 09:49:24;;;;;;;65.30;24.10;;;;;;;0.98;88.65;97981.95;104177;1315;22878;-30
2021/12/10 09:51:54;;;;;;;50.80;22.10;;;;;;;0.88;88.51;97985.63;104300;1314;22573;-30
2021/12/10 09:54:21;;;;;;;62.00;21.30;;;;;;;0.91;88.00;97984.45;104068;1314;24260;-25
2021/12/10 09:56:53;;;;;;;50.80;19.50;;;;;;;0.81;88.04;97986.77;104185;1314;24399;-26
2021/12/10 09:59:19;;;;;;;57.60;22.60;;;;;;;0.78;87.98;97982.54;103830;1314;22464;-31
2021/12/10 10:01:47;;;;;;;42.60;17.80;;;;;;;0.89;86.55;97985.84;104031;1307;23450;-25
2021/12/10 10:04:17;;;;;;;52.40;20.60;;;;;;;0.68;86.83;97986.91;104124;1314;24050;-25
2021/12/10 10:06:47;;;;;;;45.70;20.00;;;;;;;0.58;87.30;97985.91;104225;1315;23245;-30
2021/12/10 10:09:15;;;;;;;51.60;22.70;;;;;;;0.60;88.69;97983.95;103845;1315;22544;-26
2021/12/10 10:11:41;;;;;;;42.20;17.70;;;;;;;0.80;88.22;97980.05;104184;1314;22463;-30
2021/12/10 10:14:07;;;;;;;46.00;19.50;;;;;;;0.79;88.19;97978.37;104097;1314;24257;-26
2021/12/10 10:16:34;;;;;;;49.50;20.10;;;;;;;1.00;88.32;97980.46;103748;1314;22469;-30
2021/12/10 10:19:00;;;;;;;36.10;16.50;;;;;;;1.13;89.14;97977.77;103875;1314;23914;-30
2021/12/10 10:21:29;;;;;;;39.50;20.00;;;;;;;1.57;87.99;97974.73;104056;1314;24276;-26
2021/12/10 10:23:55;;;;;;;41.90;20.10;;;;;;;1.92;86.81;97974.21;103989;1314;22954;-26
2021/12/10 10:26:25;;;;;;;40.60;18.00;;;;;;;2.40;85.33;97969.05;104055;1314;24141;-26
2021/12/10 10:28:52;;;;;;;39.90;19.10;;;;;;;2.53;84.19;97968.77;103811;1314;24136;-26
2021/12/10 10:31:23;;;;;;;45.90;16.70;;;;;;;2.67;85.61;97965.02;104147;1311;24267;-30
2021/12/10 10:33:52;;;;;;;35.70;16.90;;;;;;;3.26;85.23;97967.64;103846;1314;26044;-26
2021/12/10 10:36:22;;;;;;;45.80;19.20;;;;;;;3.55;82.05;97963.11;104043;1314;22486;-31
2021/12/10 10:38:51;;;;;;;38.40;18.80;;;;;;;3.59;82.20;97964.48;104201;1310;24257;-31
2021/12/10 10:41:22;;;;;;;37.20;18.80;;;;;;;3.44;81.51;97965.29;104126;1313;25190;-31
2021/12/10 10:43:48;;;;;;;33.50;16.30;;;;;;;3.25;82.41;97967.48;103842;1316;24136;-26
2021/12/10 10:46:14;;;;;;;58.50;19.80;;;;;;;3.15;82.83;97959.78;104352;1314;24262;-26
2021/12/10 10:48:42;;;;;;;26.10;15.20;;;;;;;3.20;83.68;97958.63;104311;1307;24182;-29
2021/12/10 10:51:10;;;;;;;36.40;19.20;;;;;;;3.05;82.80;97958.17;104278;1305;25272;-29
2021/12/10 10:53:43;;;;;;;30.50;17.10;;;;;;;3.05;82.74;97955.33;104125;1314;22864;-30
2021/12/10 10:56:14;;;;;;;42.50;19.40;;;;;;;3.57;84.61;97955.16;103905;1314;22565;-25
2021/12/10 10:58:46;;;;;;;36.00;17.40;;;;;;;4.43;83.59;97942.96;104040;1314;24254;-26
2021/12/10 11:01:23;;;;;;;38.30;18.80;;;;;;;5.10;84.06;97934.59;103963;1302;22881;-26
2021/12/10 11:03:58;;;;;;;32.50;16.50;;;;;;;5.50;81.06;97933.61;103926;1314;24231;-26
2021/12/10 11:06:26;;;;;;;35.80;17.60;;;;;;;5.96;82.32;97926.14;104122;1310;24239;-30
2021/12/10 11:08:54;;;;;;;45.60;18.50;;;;;;;6.13;80.48;97921.79;103823;1310;24239;-30
2021/12/10 11:11:23;;;;;;;32.80;15.70;;;;;;;6.42;81.37;97920.23;103918;1311;24257;-31
2021/12/10 11:13:53;;;;;;;37.70;18.40;;;;;;;6.30;78.93;97919.38;103973;1313;25954;-27
2021/12/10 11:16:21;;;;;;;33.20;16.60;;;;;;;6.38;79.19;97923.64;103837;1307;22438;-26
2021/12/10 11:18:49;;;;;;;35.10;19.00;;;;;;;6.34;78.55;97924.91;103822;1313;24187;-26